sensor_id;sensor_type;location;lat;lon;timestamp;P1;durP1;ratioP1;P2;durP2;ratioP2
18316;SDS011;9284;52.298;21.164;2022-08-04T03:20:38;11.07;;;8.85;;
18316;SDS011;9284;52.298;21.164;2022-08-04T03:23:39;9.82;;;8.75;;
18316;SDS011;9284;52.298;21.164;2022-08-04T03:26:34;9.73;;;7.97;;
18316;SDS011;9284;52.298;21.164;2022-08-04T03:29:29;11.32;;;8.70;;
18316;SDS011;9284;52.298;21.164;2022-08-04T03:35:46;11.10;;;8.32;;
18316;SDS011;9284;52.298;21.164;2022-08-04T03:38:42;9.63;;;8.18;;
18316;SDS011;9284;52.298;21.164;2022-08-04T03:41:37;14.02;;;9.70;;
18316;SDS011;9284;52.298;21.164;2022-08-04T03:44:43;12.38;;;9.63;;
18316;SDS011;9284;52.298;21.164;2022-08-04T03:57:21;9.48;;;7.75;;
18316;SDS011;9284;52.298;21.164;2022-08-04T04:00:04;9.45;;;7.10;;
18316;SDS011;9284;52.298;21.164;2022-08-04T04:05:45;11.02;;;7.28;;
18316;SDS011;9284;52.298;21.164;2022-08-04T04:08:41;10.48;;;7.55;;
18316;SDS011;9284;52.298;21.164;2022-08-04T04:11:35;11.85;;;7.80;;
18316;SDS011;9284;52.298;21.164;2022-08-04T04:17:29;8.75;;;7.00;;
18316;SDS011;9284;52.298;21.164;2022-08-04T04:20:16;7.65;;;6.85;;
18316;SDS011;9284;52.298;21.164;2022-08-04T04:23:10;10.65;;;7.10;;
18316;SDS011;9284;52.298;21.164;2022-08-04T04:25:54;10.40;;;8.10;;
18316;SDS011;9284;52.298;21.164;2022-08-04T04:31:32;10.45;;;7.40;;
18316;SDS011;9284;52.298;21.164;2022-08-04T04:34:15;14.13;;;6.88;;
18316;SDS011;9284;52.298;21.164;2022-08-04T04:37:00;9.32;;;6.47;;
18316;SDS011;9284;52.298;21.164;2022-08-04T04:39:40;9.20;;;6.57;;
18316;SDS011;9284;52.298;21.164;2022-08-04T04:42:37;8.30;;;5.80;;
18316;SDS011;9284;52.298;21.164;2022-08-04T04:45:35;10.15;;;6.32;;
18316;SDS011;9284;52.298;21.164;2022-08-04T04:48:08;8.52;;;5.65;;
18316;SDS011;9284;52.298;21.164;2022-08-04T04:50:46;9.25;;;6.35;;
18316;SDS011;9284;52.298;21.164;2022-08-04T04:53:23;11.40;;;7.53;;
18316;SDS011;9284;52.298;21.164;2022-08-04T04:55:58;6.35;;;5.70;;
18316;SDS011;9284;52.298;21.164;2022-08-04T04:58:31;7.97;;;5.50;;
18316;SDS011;9284;52.298;21.164;2022-08-04T05:06:53;11.20;;;5.72;;
18316;SDS011;9284;52.298;21.164;2022-08-04T05:09:38;5.57;;;4.72;;
18316;SDS011;9284;52.298;21.164;2022-08-04T05:15:38;5.78;;;4.72;;
18316;SDS011;9284;52.298;21.164;2022-08-04T05:18:13;6.43;;;5.30;;
18316;SDS011;9284;52.298;21.164;2022-08-04T05:20:47;9.75;;;6.18;;
18316;SDS011;9284;52.298;21.164;2022-08-04T05:23:20;6.78;;;4.55;;
18316;SDS011;9284;52.298;21.164;2022-08-04T05:25:54;6.93;;;4.30;;
18316;SDS011;9284;52.298;21.164;2022-08-04T05:28:27;6.82;;;3.85;;
18316;SDS011;9284;52.298;21.164;2022-08-04T05:31:00;4.88;;;3.95;;
18316;SDS011;9284;52.298;21.164;2022-08-04T05:33:36;4.28;;;3.88;;
18316;SDS011;9284;52.298;21.164;2022-08-04T05:36:09;4.22;;;3.58;;
18316;SDS011;9284;52.298;21.164;2022-08-04T05:39:02;8.13;;;3.85;;
18316;SDS011;9284;52.298;21.164;2022-08-04T05:41:32;5.75;;;4.05;;
18316;SDS011;9284;52.298;21.164;2022-08-04T05:44:11;7.85;;;4.03;;
18316;SDS011;9284;52.298;21.164;2022-08-04T05:46:41;6.22;;;3.75;;
18316;SDS011;9284;52.298;21.164;2022-08-04T05:49:20;5.10;;;3.90;;
18316;SDS011;9284;52.298;21.164;2022-08-04T05:51:50;8.85;;;3.30;;
18316;SDS011;9284;52.298;21.164;2022-08-04T05:54:19;7.60;;;3.47;;
18316;SDS011;9284;52.298;21.164;2022-08-04T05:56:49;7.93;;;3.22;;
18316;SDS011;9284;52.298;21.164;2022-08-04T05:59:18;7.03;;;3.08;;
18316;SDS011;9284;52.298;21.164;2022-08-04T06:01:52;4.90;;;3.20;;
18316;SDS011;9284;52.298;21.164;2022-08-04T06:04:25;4.00;;;2.85;;
18316;SDS011;9284;52.298;21.164;2022-08-04T06:06:57;5.90;;;3.25;;
18316;SDS011;9284;52.298;21.164;2022-08-04T06:09:25;8.23;;;2.90;;
18316;SDS011;9284;52.298;21.164;2022-08-04T06:11:54;5.28;;;2.97;;
18316;SDS011;9284;52.298;21.164;2022-08-04T06:14:31;4.90;;;3.05;;
18316;SDS011;9284;52.298;21.164;2022-08-04T06:17:02;4.85;;;3.03;;
18316;SDS011;9284;52.298;21.164;2022-08-04T06:19:55;5.35;;;2.67;;
18316;SDS011;9284;52.298;21.164;2022-08-04T06:22:45;4.28;;;2.72;;
18316;SDS011;9284;52.298;21.164;2022-08-04T06:25:17;5.28;;;3.00;;
18316;SDS011;9284;52.298;21.164;2022-08-04T06:27:48;5.35;;;2.60;;
18316;SDS011;9284;52.298;21.164;2022-08-04T06:30:18;3.50;;;2.58;;
18316;SDS011;9284;52.298;21.164;2022-08-04T06:32:51;4.22;;;2.70;;
18316;SDS011;9284;52.298;21.164;2022-08-04T06:35:31;6.78;;;3.10;;
18316;SDS011;9284;52.298;21.164;2022-08-04T06:38:00;3.97;;;3.20;;
18316;SDS011;9284;52.298;21.164;2022-08-04T06:40:29;3.85;;;3.22;;
18316;SDS011;9284;52.298;21.164;2022-08-04T06:43:00;4.10;;;3.17;;
18316;SDS011;9284;52.298;21.164;2022-08-04T06:45:30;3.25;;;2.95;;
18316;SDS011;9284;52.298;21.164;2022-08-04T06:48:00;5.00;;;3.05;;
18316;SDS011;9284;52.298;21.164;2022-08-04T06:50:29;4.28;;;3.03;;
18316;SDS011;9284;52.298;21.164;2022-08-04T06:53:21;3.60;;;3.15;;
18316;SDS011;9284;52.298;21.164;2022-08-04T06:55:50;7.43;;;2.90;;
18316;SDS011;9284;52.298;21.164;2022-08-04T06:58:20;4.18;;;2.97;;
18316;SDS011;9284;52.298;21.164;2022-08-04T07:00:48;7.45;;;2.92;;
18316;SDS011;9284;52.298;21.164;2022-08-04T07:03:18;6.05;;;3.13;;
18316;SDS011;9284;52.298;21.164;2022-08-04T07:05:48;3.35;;;2.80;;
18316;SDS011;9284;52.298;21.164;2022-08-04T07:08:18;3.78;;;2.85;;
18316;SDS011;9284;52.298;21.164;2022-08-04T07:10:48;2.83;;;2.53;;
18316;SDS011;9284;52.298;21.164;2022-08-04T07:13:19;3.33;;;2.78;;
18316;SDS011;9284;52.298;21.164;2022-08-04T07:15:48;5.93;;;2.53;;
18316;SDS011;9284;52.298;21.164;2022-08-04T07:18:17;3.55;;;2.40;;
18316;SDS011;9284;52.298;21.164;2022-08-04T07:20:45;6.80;;;2.63;;
18316;SDS011;9284;52.298;21.164;2022-08-04T07:23:16;3.88;;;2.95;;
18316;SDS011;9284;52.298;21.164;2022-08-04T07:25:50;5.20;;;3.10;;
18316;SDS011;9284;52.298;21.164;2022-08-04T07:28:38;3.08;;;2.78;;
18316;SDS011;9284;52.298;21.164;2022-08-04T07:31:08;6.35;;;3.60;;
18316;SDS011;9284;52.298;21.164;2022-08-04T07:33:57;6.38;;;3.40;;
18316;SDS011;9284;52.298;21.164;2022-08-04T07:36:47;4.93;;;3.20;;
18316;SDS011;9284;52.298;21.164;2022-08-04T07:39:20;4.25;;;3.30;;
18316;SDS011;9284;52.298;21.164;2022-08-04T07:41:54;4.78;;;2.97;;
18316;SDS011;9284;52.298;21.164;2022-08-04T07:44:26;3.40;;;2.88;;
18316;SDS011;9284;52.298;21.164;2022-08-04T07:46:55;3.45;;;3.15;;
18316;SDS011;9284;52.298;21.164;2022-08-04T07:49:23;5.38;;;2.70;;
18316;SDS011;9284;52.298;21.164;2022-08-04T07:52:12;4.03;;;3.15;;
18316;SDS011;9284;52.298;21.164;2022-08-04T07:54:42;6.95;;;2.80;;
18316;SDS011;9284;52.298;21.164;2022-08-04T07:57:12;8.65;;;2.95;;
18316;SDS011;9284;52.298;21.164;2022-08-04T08:00:00;2.92;;;2.60;;
18316;SDS011;9284;52.298;21.164;2022-08-04T08:02:37;2.80;;;2.60;;
18316;SDS011;9284;52.298;21.164;2022-08-04T08:05:06;3.45;;;2.30;;
18316;SDS011;9284;52.298;21.164;2022-08-04T08:07:36;3.20;;;2.35;;
18316;SDS011;9284;52.298;21.164;2022-08-04T08:10:21;3.65;;;2.58;;
18316;SDS011;9284;52.298;21.164;2022-08-04T08:12:50;3.00;;;2.70;;
18316;SDS011;9284;52.298;21.164;2022-08-04T08:15:19;3.53;;;2.50;;
18316;SDS011;9284;52.298;21.164;2022-08-04T08:17:47;2.53;;;2.33;;
18316;SDS011;9284;52.298;21.164;2022-08-04T08:20:26;2.22;;;2.00;;
18316;SDS011;9284;52.298;21.164;2022-08-04T08:22:56;4.97;;;2.13;;
18316;SDS011;9284;52.298;21.164;2022-08-04T08:25:26;2.83;;;2.50;;
18316;SDS011;9284;52.298;21.164;2022-08-04T08:27:55;3.05;;;2.58;;
18316;SDS011;9284;52.298;21.164;2022-08-04T08:30:24;2.65;;;2.35;;
18316;SDS011;9284;52.298;21.164;2022-08-04T08:32:58;3.42;;;2.58;;
18316;SDS011;9284;52.298;21.164;2022-08-04T08:35:31;2.50;;;2.22;;
18316;SDS011;9284;52.298;21.164;2022-08-04T08:38:12;3.83;;;2.42;;
18316;SDS011;9284;52.298;21.164;2022-08-04T08:40:47;2.85;;;1.95;;
18316;SDS011;9284;52.298;21.164;2022-08-04T08:43:34;2.65;;;2.10;;
18316;SDS011;9284;52.298;21.164;2022-08-04T08:46:42;3.17;;;2.47;;
18316;SDS011;9284;52.298;21.164;2022-08-04T08:49:24;3.95;;;2.60;;
18316;SDS011;9284;52.298;21.164;2022-08-04T08:52:31;2.83;;;2.63;;
18316;SDS011;9284;52.298;21.164;2022-08-04T08:55:31;5.78;;;2.35;;
18316;SDS011;9284;52.298;21.164;2022-08-04T09:01:21;2.80;;;2.45;;
18316;SDS011;9284;52.298;21.164;2022-08-04T09:04:11;2.55;;;2.35;;
18316;SDS011;9284;52.298;21.164;2022-08-04T09:07:03;3.33;;;2.42;;
18316;SDS011;9284;52.298;21.164;2022-08-04T09:09:48;5.38;;;2.55;;
18316;SDS011;9284;52.298;21.164;2022-08-04T09:12:29;3.47;;;2.50;;
18316;SDS011;9284;52.298;21.164;2022-08-04T09:15:05;3.38;;;2.88;;
18316;SDS011;9284;52.298;21.164;2022-08-04T09:17:44;3.47;;;2.30;;
18316;SDS011;9284;52.298;21.164;2022-08-04T09:20:19;3.53;;;2.70;;
18316;SDS011;9284;52.298;21.164;2022-08-04T09:22:59;3.45;;;2.80;;
18316;SDS011;9284;52.298;21.164;2022-08-04T09:25:37;6.72;;;2.60;;
18316;SDS011;9284;52.298;21.164;2022-08-04T09:28:10;10.63;;;2.83;;
18316;SDS011;9284;52.298;21.164;2022-08-04T09:31:08;3.88;;;2.70;;
18316;SDS011;9284;52.298;21.164;2022-08-04T09:33:41;5.50;;;2.78;;
18316;SDS011;9284;52.298;21.164;2022-08-04T09:36:19;4.45;;;2.88;;
18316;SDS011;9284;52.298;21.164;2022-08-04T09:39:03;6.32;;;2.88;;
18316;SDS011;9284;52.298;21.164;2022-08-04T09:41:39;3.83;;;3.08;;
18316;SDS011;9284;52.298;21.164;2022-08-04T09:44:20;4.40;;;3.15;;
18316;SDS011;9284;52.298;21.164;2022-08-04T09:47:16;4.70;;;2.85;;
18316;SDS011;9284;52.298;21.164;2022-08-04T09:50:09;3.40;;;3.10;;
18316;SDS011;9284;52.298;21.164;2022-08-04T09:52:45;5.95;;;3.10;;
18316;SDS011;9284;52.298;21.164;2022-08-04T09:55:21;7.85;;;3.55;;
18316;SDS011;9284;52.298;21.164;2022-08-04T09:58:21;4.30;;;3.33;;
18316;SDS011;9284;52.298;21.164;2022-08-04T10:01:00;4.75;;;3.38;;
18316;SDS011;9284;52.298;21.164;2022-08-04T10:03:34;6.22;;;3.53;;
18316;SDS011;9284;52.298;21.164;2022-08-04T10:06:07;5.93;;;3.58;;
18316;SDS011;9284;52.298;21.164;2022-08-04T10:09:00;3.88;;;3.58;;
18316;SDS011;9284;52.298;21.164;2022-08-04T10:11:45;4.13;;;3.35;;
18316;SDS011;9284;52.298;21.164;2022-08-04T10:14:36;6.88;;;3.72;;
18316;SDS011;9284;52.298;21.164;2022-08-04T10:17:11;3.78;;;3.47;;
18316;SDS011;9284;52.298;21.164;2022-08-04T10:19:52;4.10;;;3.70;;
18316;SDS011;9284;52.298;21.164;2022-08-04T10:22:30;3.92;;;3.25;;
18316;SDS011;9284;52.298;21.164;2022-08-04T10:25:24;4.03;;;3.70;;
18316;SDS011;9284;52.298;21.164;2022-08-04T10:28:20;5.22;;;3.75;;
18316;SDS011;9284;52.298;21.164;2022-08-04T10:30:53;3.78;;;3.38;;
18316;SDS011;9284;52.298;21.164;2022-08-04T10:33:26;5.65;;;3.42;;
18316;SDS011;9284;52.298;21.164;2022-08-04T10:36:02;5.20;;;3.50;;
18316;SDS011;9284;52.298;21.164;2022-08-04T10:38:36;3.75;;;3.45;;
18316;SDS011;9284;52.298;21.164;2022-08-04T10:41:09;6.82;;;3.40;;
18316;SDS011;9284;52.298;21.164;2022-08-04T10:43:47;4.38;;;3.97;;
18316;SDS011;9284;52.298;21.164;2022-08-04T10:46:22;4.30;;;3.90;;
18316;SDS011;9284;52.298;21.164;2022-08-04T10:48:56;3.67;;;3.38;;
18316;SDS011;9284;52.298;21.164;2022-08-04T10:51:32;4.55;;;3.72;;
18316;SDS011;9284;52.298;21.164;2022-08-04T10:54:26;3.72;;;3.42;;
18316;SDS011;9284;52.298;21.164;2022-08-04T10:56:58;4.47;;;3.50;;
18316;SDS011;9284;52.298;21.164;2022-08-04T10:59:37;4.10;;;3.70;;
18316;SDS011;9284;52.298;21.164;2022-08-04T11:02:13;3.80;;;3.38;;
18316;SDS011;9284;52.298;21.164;2022-08-04T11:04:55;6.80;;;3.33;;
18316;SDS011;9284;52.298;21.164;2022-08-04T11:07:34;3.90;;;3.60;;
18316;SDS011;9284;52.298;21.164;2022-08-04T11:10:06;4.32;;;3.30;;
18316;SDS011;9284;52.298;21.164;2022-08-04T11:12:35;5.05;;;3.33;;
18316;SDS011;9284;52.298;21.164;2022-08-04T11:15:08;4.65;;;3.50;;
18316;SDS011;9284;52.298;21.164;2022-08-04T11:17:40;5.30;;;3.42;;
18316;SDS011;9284;52.298;21.164;2022-08-04T11:20:14;5.05;;;3.40;;
18316;SDS011;9284;52.298;21.164;2022-08-04T11:23:05;4.15;;;3.80;;
18316;SDS011;9284;52.298;21.164;2022-08-04T11:25:39;4.88;;;3.30;;
18316;SDS011;9284;52.298;21.164;2022-08-04T11:28:20;4.63;;;3.40;;
18316;SDS011;9284;52.298;21.164;2022-08-04T11:30:58;6.13;;;3.33;;
18316;SDS011;9284;52.298;21.164;2022-08-04T11:33:34;4.28;;;3.03;;
18316;SDS011;9284;52.298;21.164;2022-08-04T11:36:07;3.60;;;3.30;;
18316;SDS011;9284;52.298;21.164;2022-08-04T11:38:46;5.68;;;3.30;;
18316;SDS011;9284;52.298;21.164;2022-08-04T11:41:21;3.60;;;3.08;;
18316;SDS011;9284;52.298;21.164;2022-08-04T11:44:02;4.50;;;3.10;;
18316;SDS011;9284;52.298;21.164;2022-08-04T11:46:38;3.35;;;2.85;;
18316;SDS011;9284;52.298;21.164;2022-08-04T11:49:11;6.07;;;3.35;;
18316;SDS011;9284;52.298;21.164;2022-08-04T11:51:48;5.38;;;3.35;;
18316;SDS011;9284;52.298;21.164;2022-08-04T11:54:20;3.58;;;3.28;;
18316;SDS011;9284;52.298;21.164;2022-08-04T11:56:48;6.07;;;3.20;;
18316;SDS011;9284;52.298;21.164;2022-08-04T11:59:17;8.45;;;3.45;;
18316;SDS011;9284;52.298;21.164;2022-08-04T12:01:55;3.28;;;3.00;;
18316;SDS011;9284;52.298;21.164;2022-08-04T12:04:49;4.32;;;3.05;;
18316;SDS011;9284;52.298;21.164;2022-08-04T12:07:28;4.18;;;3.30;;
18316;SDS011;9284;52.298;21.164;2022-08-04T12:10:10;4.45;;;3.03;;
18316;SDS011;9284;52.298;21.164;2022-08-04T12:13:08;3.90;;;3.00;;
18316;SDS011;9284;52.298;21.164;2022-08-04T12:15:45;3.92;;;3.28;;
18316;SDS011;9284;52.298;21.164;2022-08-04T12:18:20;4.32;;;3.20;;
18316;SDS011;9284;52.298;21.164;2022-08-04T12:20:54;4.80;;;3.10;;
18316;SDS011;9284;52.298;21.164;2022-08-04T12:23:28;7.60;;;3.53;;
18316;SDS011;9284;52.298;21.164;2022-08-04T12:26:04;3.22;;;2.92;;
18316;SDS011;9284;52.298;21.164;2022-08-04T12:28:35;5.15;;;2.60;;
18316;SDS011;9284;52.298;21.164;2022-08-04T12:31:27;4.50;;;3.00;;
18316;SDS011;9284;52.298;21.164;2022-08-04T12:33:59;3.72;;;3.03;;
18316;SDS011;9284;52.298;21.164;2022-08-04T12:36:36;4.72;;;3.13;;
18316;SDS011;9284;52.298;21.164;2022-08-04T12:39:12;3.50;;;3.00;;
18316;SDS011;9284;52.298;21.164;2022-08-04T12:41:47;3.67;;;2.60;;
18316;SDS011;9284;52.298;21.164;2022-08-04T12:44:23;4.70;;;2.85;;
18316;SDS011;9284;52.298;21.164;2022-08-04T12:47:03;3.35;;;2.90;;
18316;SDS011;9284;52.298;21.164;2022-08-04T12:49:55;3.78;;;3.17;;
18316;SDS011;9284;52.298;21.164;2022-08-04T12:52:28;3.22;;;2.72;;
18316;SDS011;9284;52.298;21.164;2022-08-04T12:55:18;3.40;;;2.92;;
18316;SDS011;9284;52.298;21.164;2022-08-04T12:57:51;3.28;;;2.92;;
18316;SDS011;9284;52.298;21.164;2022-08-04T13:00:24;4.55;;;2.70;;
18316;SDS011;9284;52.298;21.164;2022-08-04T13:03:04;3.25;;;2.72;;
18316;SDS011;9284;52.298;21.164;2022-08-04T13:05:37;4.35;;;3.30;;
18316;SDS011;9284;52.298;21.164;2022-08-04T13:08:07;3.65;;;3.30;;
18316;SDS011;9284;52.298;21.164;2022-08-04T13:10:38;3.70;;;3.40;;
18316;SDS011;9284;52.298;21.164;2022-08-04T13:13:14;4.88;;;2.90;;
18316;SDS011;9284;52.298;21.164;2022-08-04T13:15:43;4.78;;;3.50;;
18316;SDS011;9284;52.298;21.164;2022-08-04T13:18:23;4.82;;;3.72;;
18316;SDS011;9284;52.298;21.164;2022-08-04T13:21:07;4.40;;;3.03;;
18316;SDS011;9284;52.298;21.164;2022-08-04T13:23:48;4.45;;;3.10;;
18316;SDS011;9284;52.298;21.164;2022-08-04T13:26:45;5.93;;;3.60;;
18316;SDS011;9284;52.298;21.164;2022-08-04T13:29:24;4.30;;;3.00;;
18316;SDS011;9284;52.298;21.164;2022-08-04T13:32:17;4.63;;;2.95;;
18316;SDS011;9284;52.298;21.164;2022-08-04T13:34:48;3.90;;;3.00;;
18316;SDS011;9284;52.298;21.164;2022-08-04T13:37:19;4.53;;;2.80;;
18316;SDS011;9284;52.298;21.164;2022-08-04T13:39:52;4.45;;;2.97;;
18316;SDS011;9284;52.298;21.164;2022-08-04T13:42:23;3.53;;;2.92;;
18316;SDS011;9284;52.298;21.164;2022-08-04T13:44:55;8.75;;;3.00;;
18316;SDS011;9284;52.298;21.164;2022-08-04T13:47:26;10.05;;;3.15;;
18316;SDS011;9284;52.298;21.164;2022-08-04T13:50:07;5.65;;;2.75;;
18316;SDS011;9284;52.298;21.164;2022-08-04T13:52:41;6.03;;;2.80;;
18316;SDS011;9284;52.298;21.164;2022-08-04T13:55:24;4.25;;;2.90;;
18316;SDS011;9284;52.298;21.164;2022-08-04T13:57:56;3.58;;;2.58;;
18316;SDS011;9284;52.298;21.164;2022-08-04T14:00:40;6.40;;;2.97;;
18316;SDS011;9284;52.298;21.164;2022-08-04T14:03:12;3.17;;;2.42;;
18316;SDS011;9284;52.298;21.164;2022-08-04T14:06:10;3.15;;;2.60;;
18316;SDS011;9284;52.298;21.164;2022-08-04T14:08:48;5.63;;;2.85;;
18316;SDS011;9284;52.298;21.164;2022-08-04T14:11:20;2.95;;;2.72;;
18316;SDS011;9284;52.298;21.164;2022-08-04T14:14:17;2.92;;;2.70;;
18316;SDS011;9284;52.298;21.164;2022-08-04T14:16:59;3.78;;;2.70;;
18316;SDS011;9284;52.298;21.164;2022-08-04T14:19:46;5.45;;;2.95;;
18316;SDS011;9284;52.298;21.164;2022-08-04T14:22:33;3.83;;;2.63;;
18316;SDS011;9284;52.298;21.164;2022-08-04T14:25:04;2.85;;;2.45;;
18316;SDS011;9284;52.298;21.164;2022-08-04T14:27:46;3.47;;;2.47;;
18316;SDS011;9284;52.298;21.164;2022-08-04T14:30:20;4.60;;;2.67;;
18316;SDS011;9284;52.298;21.164;2022-08-04T14:32:58;4.10;;;2.90;;
18316;SDS011;9284;52.298;21.164;2022-08-04T14:35:55;6.50;;;2.83;;
18316;SDS011;9284;52.298;21.164;2022-08-04T14:38:40;2.72;;;2.53;;
18316;SDS011;9284;52.298;21.164;2022-08-04T14:41:13;3.65;;;2.47;;
18316;SDS011;9284;52.298;21.164;2022-08-04T14:43:42;3.92;;;2.80;;
18316;SDS011;9284;52.298;21.164;2022-08-04T14:46:12;3.45;;;2.38;;
18316;SDS011;9284;52.298;21.164;2022-08-04T14:51:36;3.15;;;2.40;;
18316;SDS011;9284;52.298;21.164;2022-08-04T14:54:07;3.60;;;2.47;;
18316;SDS011;9284;52.298;21.164;2022-08-04T14:56:50;2.92;;;2.40;;
18316;SDS011;9284;52.298;21.164;2022-08-04T14:59:19;2.83;;;2.60;;
18316;SDS011;9284;52.298;21.164;2022-08-04T15:01:48;3.22;;;2.80;;
18316;SDS011;9284;52.298;21.164;2022-08-04T15:04:28;3.67;;;2.60;;
18316;SDS011;9284;52.298;21.164;2022-08-04T15:06:57;3.75;;;2.67;;
18316;SDS011;9284;52.298;21.164;2022-08-04T15:09:30;7.07;;;2.80;;
18316;SDS011;9284;52.298;21.164;2022-08-04T15:11:59;3.10;;;2.80;;
18316;SDS011;9284;52.298;21.164;2022-08-04T15:14:27;2.72;;;2.38;;
18316;SDS011;9284;52.298;21.164;2022-08-04T15:17:04;4.13;;;2.60;;
18316;SDS011;9284;52.298;21.164;2022-08-04T15:19:54;2.72;;;2.53;;
18316;SDS011;9284;52.298;21.164;2022-08-04T15:22:24;6.63;;;2.58;;
18316;SDS011;9284;52.298;21.164;2022-08-04T15:24:52;4.45;;;2.80;;
18316;SDS011;9284;52.298;21.164;2022-08-04T15:27:22;4.35;;;3.05;;
18316;SDS011;9284;52.298;21.164;2022-08-04T15:29:52;3.65;;;2.60;;
18316;SDS011;9284;52.298;21.164;2022-08-04T15:32:26;3.50;;;2.70;;
18316;SDS011;9284;52.298;21.164;2022-08-04T15:35:01;4.72;;;2.75;;
18316;SDS011;9284;52.298;21.164;2022-08-04T15:37:36;5.97;;;2.72;;
18316;SDS011;9284;52.298;21.164;2022-08-04T15:40:10;3.22;;;2.20;;
18316;SDS011;9284;52.298;21.164;2022-08-04T15:42:43;4.30;;;2.50;;
18316;SDS011;9284;52.298;21.164;2022-08-04T15:45:18;3.97;;;2.33;;
18316;SDS011;9284;52.298;21.164;2022-08-04T15:48:21;3.03;;;2.40;;
18316;SDS011;9284;52.298;21.164;2022-08-04T15:51:03;2.70;;;2.40;;
18316;SDS011;9284;52.298;21.164;2022-08-04T15:56:58;3.53;;;2.30;;
18316;SDS011;9284;52.298;21.164;2022-08-04T16:02:36;2.70;;;2.50;;
18316;SDS011;9284;52.298;21.164;2022-08-04T16:05:28;2.80;;;2.40;;
18316;SDS011;9284;52.298;21.164;2022-08-04T16:08:09;5.50;;;2.28;;
18316;SDS011;9284;52.298;21.164;2022-08-04T16:10:40;3.45;;;2.30;;
18316;SDS011;9284;52.298;21.164;2022-08-04T16:13:10;3.90;;;2.13;;
18316;SDS011;9284;52.298;21.164;2022-08-04T16:15:45;5.60;;;2.50;;
18316;SDS011;9284;52.298;21.164;2022-08-04T16:18:20;3.05;;;2.42;;
18316;SDS011;9284;52.298;21.164;2022-08-04T16:21:04;10.30;;;3.42;;
18316;SDS011;9284;52.298;21.164;2022-08-04T16:23:54;5.50;;;2.50;;
18316;SDS011;9284;52.298;21.164;2022-08-04T16:29:30;2.55;;;2.35;;
18316;SDS011;9284;52.298;21.164;2022-08-04T16:32:10;6.15;;;2.40;;
18316;SDS011;9284;52.298;21.164;2022-08-04T16:34:41;5.25;;;2.28;;
18316;SDS011;9284;52.298;21.164;2022-08-04T16:37:26;3.42;;;2.25;;
18316;SDS011;9284;52.298;21.164;2022-08-04T16:43:01;2.85;;;2.20;;
18316;SDS011;9284;52.298;21.164;2022-08-04T16:45:43;3.53;;;2.20;;
18316;SDS011;9284;52.298;21.164;2022-08-04T16:48:16;2.15;;;1.98;;
18316;SDS011;9284;52.298;21.164;2022-08-04T16:50:53;8.88;;;2.35;;
18316;SDS011;9284;52.298;21.164;2022-08-04T16:53:34;2.58;;;2.13;;
18316;SDS011;9284;52.298;21.164;2022-08-04T16:56:28;2.45;;;1.95;;
18316;SDS011;9284;52.298;21.164;2022-08-04T16:59:04;2.78;;;2.00;;
18316;SDS011;9284;52.298;21.164;2022-08-04T17:01:34;5.78;;;2.20;;
18316;SDS011;9284;52.298;21.164;2022-08-04T17:04:03;2.67;;;1.80;;
18316;SDS011;9284;52.298;21.164;2022-08-04T17:06:33;4.28;;;1.75;;
18316;SDS011;9284;52.298;21.164;2022-08-04T17:09:03;4.10;;;1.90;;
18316;SDS011;9284;52.298;21.164;2022-08-04T17:11:34;2.80;;;1.92;;
18316;SDS011;9284;52.298;21.164;2022-08-04T17:14:02;4.55;;;1.98;;
18316;SDS011;9284;52.298;21.164;2022-08-04T17:16:32;3.45;;;2.00;;
18316;SDS011;9284;52.298;21.164;2022-08-04T17:19:03;3.58;;;2.22;;
18316;SDS011;9284;52.298;21.164;2022-08-04T17:21:52;3.38;;;2.30;;
18316;SDS011;9284;52.298;21.164;2022-08-04T17:24:29;7.13;;;2.00;;
18316;SDS011;9284;52.298;21.164;2022-08-04T17:26:59;2.63;;;2.10;;
18316;SDS011;9284;52.298;21.164;2022-08-04T17:29:29;6.25;;;1.80;;
18316;SDS011;9284;52.298;21.164;2022-08-04T17:32:20;3.17;;;2.00;;
18316;SDS011;9284;52.298;21.164;2022-08-04T17:34:50;4.90;;;2.15;;
18316;SDS011;9284;52.298;21.164;2022-08-04T17:37:22;2.17;;;2.00;;
18316;SDS011;9284;52.298;21.164;2022-08-04T17:40:07;3.47;;;2.20;;
18316;SDS011;9284;52.298;21.164;2022-08-04T17:42:38;5.15;;;2.30;;
18316;SDS011;9284;52.298;21.164;2022-08-04T17:45:11;5.43;;;2.08;;
18316;SDS011;9284;52.298;21.164;2022-08-04T17:48:05;2.67;;;1.80;;
18316;SDS011;9284;52.298;21.164;2022-08-04T17:50:35;3.13;;;2.35;;
18316;SDS011;9284;52.298;21.164;2022-08-04T17:53:09;4.57;;;2.00;;
18316;SDS011;9284;52.298;21.164;2022-08-04T17:55:42;2.25;;;2.05;;
18316;SDS011;9284;52.298;21.164;2022-08-04T17:58:18;2.92;;;2.53;;
18316;SDS011;9284;52.298;21.164;2022-08-04T18:00:56;6.25;;;2.42;;
18316;SDS011;9284;52.298;21.164;2022-08-04T18:03:45;6.40;;;2.25;;
18316;SDS011;9284;52.298;21.164;2022-08-04T18:06:18;2.88;;;2.35;;
18316;SDS011;9284;52.298;21.164;2022-08-04T18:08:50;3.75;;;2.25;;
18316;SDS011;9284;52.298;21.164;2022-08-04T18:11:24;4.90;;;2.38;;
18316;SDS011;9284;52.298;21.164;2022-08-04T18:13:56;4.88;;;2.30;;
18316;SDS011;9284;52.298;21.164;2022-08-04T18:16:25;2.90;;;2.35;;
18316;SDS011;9284;52.298;21.164;2022-08-04T18:21:45;3.42;;;2.22;;
18316;SDS011;9284;52.298;21.164;2022-08-04T18:24:26;4.70;;;2.42;;
18316;SDS011;9284;52.298;21.164;2022-08-04T18:27:01;4.95;;;2.25;;
18316;SDS011;9284;52.298;21.164;2022-08-04T18:29:33;2.78;;;2.40;;
18316;SDS011;9284;52.298;21.164;2022-08-04T18:32:04;4.32;;;2.40;;
18316;SDS011;9284;52.298;21.164;2022-08-04T18:34:34;4.25;;;2.40;;
18316;SDS011;9284;52.298;21.164;2022-08-04T18:37:23;4.90;;;2.40;;
18316;SDS011;9284;52.298;21.164;2022-08-04T18:40:11;5.40;;;2.75;;
18316;SDS011;9284;52.298;21.164;2022-08-04T18:42:56;3.58;;;2.63;;
18316;SDS011;9284;52.298;21.164;2022-08-04T18:45:27;5.25;;;2.30;;
18316;SDS011;9284;52.298;21.164;2022-08-04T18:48:00;5.97;;;2.35;;
18316;SDS011;9284;52.298;21.164;2022-08-04T18:50:39;4.47;;;2.50;;
18316;SDS011;9284;52.298;21.164;2022-08-04T18:53:27;3.78;;;2.38;;
18316;SDS011;9284;52.298;21.164;2022-08-04T18:56:01;2.85;;;2.55;;
18316;SDS011;9284;52.298;21.164;2022-08-04T18:58:40;6.05;;;2.50;;
18316;SDS011;9284;52.298;21.164;2022-08-04T19:01:12;8.95;;;2.83;;
18316;SDS011;9284;52.298;21.164;2022-08-04T19:03:40;6.93;;;2.63;;
18316;SDS011;9284;52.298;21.164;2022-08-04T19:06:13;8.10;;;2.55;;
18316;SDS011;9284;52.298;21.164;2022-08-04T19:08:41;10.93;;;3.13;;
18316;SDS011;9284;52.298;21.164;2022-08-04T19:11:10;4.55;;;2.90;;
18316;SDS011;9284;52.298;21.164;2022-08-04T19:14:00;5.55;;;2.67;;
18316;SDS011;9284;52.298;21.164;2022-08-04T19:16:31;4.38;;;2.60;;
18316;SDS011;9284;52.298;21.164;2022-08-04T19:19:01;3.97;;;2.70;;
18316;SDS011;9284;52.298;21.164;2022-08-04T19:21:31;6.40;;;3.10;;
18316;SDS011;9284;52.298;21.164;2022-08-04T19:24:20;3.00;;;2.45;;
18316;SDS011;9284;52.298;21.164;2022-08-04T19:26:59;3.25;;;2.75;;
18316;SDS011;9284;52.298;21.164;2022-08-04T19:29:33;5.45;;;2.90;;
18316;SDS011;9284;52.298;21.164;2022-08-04T19:32:10;5.10;;;3.20;;
18316;SDS011;9284;52.298;21.164;2022-08-04T19:34:59;3.13;;;2.42;;
18316;SDS011;9284;52.298;21.164;2022-08-04T19:37:27;6.15;;;3.00;;
18316;SDS011;9284;52.298;21.164;2022-08-04T19:40:15;4.32;;;2.72;;
18316;SDS011;9284;52.298;21.164;2022-08-04T19:42:59;5.00;;;2.75;;
18316;SDS011;9284;52.298;21.164;2022-08-04T19:45:40;5.53;;;2.95;;
18316;SDS011;9284;52.298;21.164;2022-08-04T19:48:12;7.53;;;2.88;;
18316;SDS011;9284;52.298;21.164;2022-08-04T19:50:45;5.78;;;3.05;;
18316;SDS011;9284;52.298;21.164;2022-08-04T19:53:14;5.05;;;3.22;;
18316;SDS011;9284;52.298;21.164;2022-08-04T19:55:45;5.18;;;3.10;;
18316;SDS011;9284;52.298;21.164;2022-08-04T19:58:15;5.40;;;2.97;;
18316;SDS011;9284;52.298;21.164;2022-08-04T20:00:51;5.43;;;2.90;;
18316;SDS011;9284;52.298;21.164;2022-08-04T20:03:22;4.32;;;3.28;;